createdAt,value
2022-12-05T05:17:07.876Z,19.10
2022-12-05T05:19:34.450Z,17.70
2022-12-05T05:22:00.891Z,21.08
2022-12-05T05:24:27.571Z,19.95
2022-12-05T05:26:57.273Z,18.60
2022-12-05T05:29:24.371Z,25.50
2022-12-05T05:32:01.551Z,19.98
2022-12-05T05:34:28.736Z,21.08
2022-12-05T05:36:55.507Z,15.63
2022-12-05T05:39:22.093Z,26.30
2022-12-05T05:41:48.698Z,21.42
2022-12-05T05:44:21.035Z,20.45
2022-12-05T05:46:47.618Z,22.42
2022-12-05T05:49:14.171Z,25.40
2022-12-05T05:51:40.672Z,25.42
2022-12-05T05:54:39.454Z,26.38
2022-12-05T05:57:07.439Z,23.77
2022-12-05T05:59:33.961Z,24.15
2022-12-05T06:02:00.410Z,27.63
2022-12-05T06:04:40.332Z,26.13
2022-12-05T06:07:07.036Z,28.20
2022-12-05T06:09:42.729Z,29.98
2022-12-05T06:12:10.363Z,28.60
2022-12-05T06:14:53.301Z,24.15
2022-12-05T06:17:19.849Z,25.33
2022-12-05T06:19:46.396Z,22.40
2022-12-05T06:22:13.181Z,25.30
2022-12-05T06:24:52.992Z,26.00
2022-12-05T06:27:19.452Z,30.70
2022-12-05T06:29:45.908Z,30.60
2022-12-05T06:32:12.499Z,38.08
2022-12-05T06:34:38.981Z,29.98
2022-12-05T06:37:10.187Z,28.10
2022-12-05T06:39:39.958Z,28.73
2022-12-05T06:42:06.587Z,30.20
2022-12-05T06:44:33.034Z,35.83
2022-12-05T06:46:59.556Z,40.00
2022-12-05T06:49:37.461Z,26.85
2022-12-05T06:52:04.846Z,34.65
2022-12-05T06:54:31.438Z,31.17
2022-12-05T06:56:57.956Z,28.88
2022-12-05T06:59:24.683Z,36.30
2022-12-05T07:01:51.396Z,34.13
2022-12-05T07:04:21.449Z,28.92
2022-12-05T07:06:51.779Z,29.17
2022-12-05T07:09:49.333Z,33.42
2022-12-05T07:12:18.726Z,27.73
2022-12-05T07:14:48.226Z,25.33
2022-12-05T07:17:16.985Z,25.98
2022-12-05T07:19:54.831Z,28.45
2022-12-05T07:22:22.946Z,23.40
2022-12-05T07:24:52.072Z,21.38
2022-12-05T07:27:23.267Z,24.30
2022-12-05T07:29:53.326Z,24.60
2022-12-05T07:32:20.017Z,22.55
2022-12-05T07:34:49.613Z,21.17
2022-12-05T07:37:18.920Z,22.02
2022-12-05T07:39:45.493Z,26.40
2022-12-05T07:42:12.183Z,30.13
2022-12-05T07:44:38.665Z,20.13
2022-12-05T07:47:05.131Z,24.20
2022-12-05T07:49:31.637Z,31.23
2022-12-05T07:52:00.189Z,27.45
2022-12-05T07:54:33.477Z,22.35
2022-12-05T07:57:04.289Z,24.17
2022-12-05T07:59:30.858Z,32.70
2022-12-05T08:01:57.531Z,26.60
2022-12-05T08:04:25.413Z,31.58
2022-12-05T08:06:51.857Z,21.88
2022-12-05T08:09:18.301Z,26.42
2022-12-05T08:11:49.558Z,27.90
2022-12-05T08:14:23.108Z,27.35
2022-12-05T08:16:49.695Z,29.13
2022-12-05T08:19:27.116Z,32.90
2022-12-05T08:21:59.923Z,27.20
2022-12-05T08:24:26.516Z,34.58
2022-12-05T08:26:54.145Z,27.08
2022-12-05T08:29:22.715Z,24.73
2022-12-05T08:31:51.049Z,29.42
2022-12-05T08:34:22.595Z,25.10
2022-12-05T08:36:53.213Z,26.40
2022-12-05T08:40:13.164Z,27.85
2022-12-05T08:42:39.664Z,21.85
2022-12-05T08:45:06.850Z,28.38
2022-12-05T08:47:33.365Z,25.15
2022-12-05T08:50:00.102Z,24.33
2022-12-05T08:52:26.901Z,26.33
2022-12-05T08:54:53.449Z,25.15
2022-12-05T08:57:20.026Z,24.83
2022-12-05T08:59:48.703Z,34.75
2022-12-05T09:02:15.278Z,31.33
2022-12-05T09:04:41.844Z,25.08
2022-12-05T09:07:08.396Z,27.60
2022-12-05T09:09:34.966Z,27.40
2022-12-05T09:12:01.574Z,34.80
2022-12-05T09:14:35.686Z,36.83
2022-12-05T09:19:29.114Z,33.15
2022-12-05T09:21:56.463Z,20.55
2022-12-05T09:24:26.147Z,25.38
2022-12-05T09:26:52.734Z,27.52
2022-12-05T09:29:19.703Z,25.42
2022-12-05T09:31:50.080Z,25.40
2022-12-05T09:34:18.636Z,25.83
2022-12-05T09:36:46.152Z,24.33
2022-12-05T09:39:44.958Z,27.25
2022-12-05T09:42:36.931Z,24.40
2022-12-05T09:45:18.617Z,26.52
2022-12-05T09:48:22.449Z,27.77
2022-12-05T09:56:41.688Z,34.40
2022-12-05T10:03:19.913Z,36.83
2022-12-05T10:06:25.406Z,31.85
2022-12-05T10:17:26.777Z,32.67
2022-12-05T10:19:59.580Z,24.58
2022-12-05T10:22:51.471Z,26.40
2022-12-05T10:25:21.371Z,30.58
2022-12-05T10:27:53.525Z,21.45
2022-12-05T10:30:24.386Z,24.50
2022-12-05T10:32:59.181Z,24.85
2022-12-05T10:38:47.448Z,26.02
2022-12-05T10:41:15.009Z,24.38
2022-12-05T10:43:45.006Z,28.08
2022-12-05T10:46:18.324Z,30.92
2022-12-05T10:48:45.910Z,26.10
2022-12-05T10:51:26.835Z,25.75
2022-12-05T10:53:54.422Z,26.50
2022-12-05T11:03:45.586Z,23.85
2022-12-05T11:10:34.565Z,24.77
2022-12-05T11:13:02.407Z,24.55
2022-12-05T11:15:31.679Z,25.15
2022-12-05T11:18:42.101Z,27.30
2022-12-05T11:21:14.957Z,26.88
2022-12-05T11:24:20.311Z,24.20
2022-12-05T11:26:46.965Z,22.10
2022-12-05T11:29:31.849Z,24.58
2022-12-05T11:31:59.016Z,23.80
2022-12-05T11:34:41.216Z,25.67
2022-12-05T11:37:18.480Z,20.20
2022-12-05T11:39:45.172Z,25.60
2022-12-05T11:42:37.258Z,29.42
2022-12-05T11:45:41.153Z,26.92
2022-12-05T11:48:13.706Z,23.90
2022-12-05T12:07:20.577Z,22.00
2022-12-05T12:11:12.745Z,24.33
2022-12-05T12:17:43.396Z,21.48
2022-12-05T12:27:37.199Z,24.42
2022-12-05T12:30:15.767Z,25.35
2022-12-05T12:33:06.307Z,21.20
2022-12-05T12:35:52.340Z,20.65
2022-12-05T12:38:51.295Z,20.38
2022-12-05T12:41:35.745Z,22.30
2022-12-05T12:44:24.175Z,17.05
2022-12-05T12:47:04.256Z,20.10
2022-12-05T12:50:04.661Z,17.92
2022-12-05T12:52:59.543Z,24.10
2022-12-05T12:59:45.542Z,17.05
2022-12-05T13:02:20.231Z,19.98
2022-12-05T13:04:49.696Z,17.27
2022-12-05T13:07:26.471Z,20.33
2022-12-05T13:09:59.107Z,19.83
2022-12-05T13:12:30.105Z,18.25
2022-12-05T13:15:04.906Z,18.98
2022-12-05T13:17:58.511Z,19.05
2022-12-05T13:20:30.459Z,14.98
2022-12-05T13:22:57.335Z,18.05
2022-12-05T13:25:29.826Z,21.77
2022-12-05T13:28:03.423Z,14.18
2022-12-05T13:30:57.822Z,19.23
2022-12-05T13:33:27.199Z,19.00
2022-12-05T13:36:30.400Z,16.25
2022-12-05T13:39:39.367Z,16.60
2022-12-05T13:42:21.593Z,13.95
2022-12-05T13:45:40.634Z,16.23
2022-12-05T13:48:19.012Z,14.30
2022-12-05T13:51:00.174Z,17.00
2022-12-05T13:53:39.270Z,17.77
2022-12-05T13:56:26.271Z,12.85
2022-12-05T13:58:52.837Z,16.30
2022-12-05T14:01:36.992Z,19.25
2022-12-05T14:04:25.346Z,16.90
2022-12-05T14:06:52.158Z,23.40
2022-12-05T14:09:22.454Z,21.67
2022-12-05T14:12:11.187Z,16.23
2022-12-05T14:14:55.897Z,17.58
2022-12-05T14:17:28.275Z,14.65
2022-12-05T14:20:20.122Z,20.65
2022-12-05T14:23:09.207Z,20.33
2022-12-05T14:25:59.663Z,16.27
2022-12-05T14:29:11.823Z,20.92
2022-12-05T14:32:19.557Z,17.63
2022-12-05T14:35:12.697Z,16.67
2022-12-05T14:38:05.628Z,20.65
2022-12-05T14:40:39.592Z,20.73
2022-12-05T14:43:17.103Z,23.80
2022-12-05T14:45:53.338Z,22.00
2022-12-05T14:51:35.855Z,27.67
2022-12-05T14:54:16.814Z,23.00
2022-12-05T15:50:51.243Z,16.15
2022-12-05T15:53:46.854Z,18.08
2022-12-05T16:07:16.332Z,15.38
2022-12-05T16:10:03.240Z,16.75
2022-12-05T16:12:40.753Z,22.30
2022-12-05T16:15:26.846Z,19.35
2022-12-05T16:17:56.360Z,19.15
2022-12-05T16:20:37.117Z,26.02
2022-12-05T16:23:33.218Z,25.02
2022-12-05T16:26:21.133Z,16.52
2022-12-05T16:29:02.196Z,15.82
2022-12-05T16:31:30.602Z,19.60
2022-12-05T16:34:06.862Z,20.48
2022-12-05T16:36:49.492Z,15.43
2022-12-05T16:39:36.363Z,21.25
2022-12-05T16:42:03.090Z,19.10
2022-12-05T16:44:45.584Z,19.77
2022-12-05T16:50:34.909Z,14.65
2022-12-05T16:53:09.138Z,16.88
2022-12-05T16:55:41.528Z,13.98
2022-12-05T16:58:15.436Z,14.70
2022-12-05T17:00:42.530Z,13.48
2022-12-05T17:03:33.519Z,19.35
2022-12-05T17:06:01.061Z,17.63
2022-12-05T17:08:27.804Z,17.25
2022-12-05T17:10:55.009Z,16.00
2022-12-05T17:13:22.025Z,21.83
2022-12-05T17:15:50.128Z,12.27
2022-12-05T17:18:27.976Z,14.52
2022-12-05T17:21:02.064Z,16.23
2022-12-05T17:23:28.729Z,16.65
2022-12-05T17:25:57.330Z,15.38
2022-12-05T17:28:30.444Z,15.55
2022-12-05T17:30:57.504Z,11.63
2022-12-05T17:33:27.359Z,10.63
2022-12-05T17:35:57.514Z,15.18
2022-12-05T17:38:26.170Z,12.27
2022-12-05T17:40:52.698Z,14.30
2022-12-05T17:43:24.799Z,17.27
2022-12-05T17:45:52.762Z,15.10
2022-12-05T17:48:19.388Z,11.90
2022-12-05T17:50:48.195Z,12.38
2022-12-05T17:53:17.527Z,16.17
2022-12-05T17:55:48.680Z,15.90
2022-12-05T17:58:23.613Z,13.32
2022-12-05T18:05:19.926Z,20.05
2022-12-05T18:07:47.620Z,14.85
2022-12-05T18:10:18.095Z,13.57
2022-12-05T18:12:51.903Z,11.13
2022-12-05T18:15:19.141Z,14.18
2022-12-05T18:17:46.189Z,16.52
2022-12-05T18:20:17.041Z,14.90
2022-12-05T18:22:49.312Z,15.55
2022-12-05T18:25:22.514Z,13.07
2022-12-05T18:30:35.800Z,14.45
2022-12-05T18:33:04.639Z,20.60
2022-12-05T18:35:44.210Z,18.65
2022-12-05T18:38:15.892Z,21.20
2022-12-05T18:40:45.470Z,20.85
2022-12-05T18:43:22.703Z,20.40
2022-12-05T18:46:09.065Z,20.02
2022-12-05T18:49:35.814Z,19.48
2022-12-05T18:52:16.175Z,21.35
2022-12-05T18:55:15.639Z,17.60
2022-12-05T18:57:57.548Z,22.80
2022-12-05T19:00:36.035Z,25.95
2022-12-05T19:03:09.248Z,22.20
2022-12-05T19:05:38.874Z,23.52
2022-12-05T19:08:13.866Z,26.63
2022-12-05T19:10:47.812Z,17.92
2022-12-05T19:13:30.139Z,22.63
2022-12-05T19:16:28.147Z,20.27
2022-12-05T19:19:07.340Z,22.10
2022-12-05T19:21:36.484Z,22.40
2022-12-05T19:24:05.348Z,21.73
2022-12-05T19:26:33.564Z,20.10
2022-12-05T19:29:06.753Z,17.50
2022-12-05T19:31:36.439Z,17.17
2022-12-05T19:34:07.094Z,14.73
2022-12-05T19:36:44.622Z,12.65
2022-12-05T19:39:16.575Z,13.20
2022-12-05T19:41:43.525Z,11.90
2022-12-05T19:44:14.294Z,10.15
2022-12-05T19:46:42.038Z,8.48
2022-12-05T19:49:11.711Z,10.48
2022-12-05T19:54:34.826Z,11.60
2022-12-05T19:57:01.533Z,10.10
2022-12-05T19:59:38.883Z,7.25
2022-12-05T20:02:05.918Z,8.18
2022-12-05T20:04:33.024Z,6.45
2022-12-05T20:07:01.010Z,10.88
2022-12-05T20:09:27.622Z,11.20
2022-12-05T20:11:57.558Z,8.27
2022-12-05T20:14:26.415Z,7.43
2022-12-05T20:17:00.865Z,9.80
2022-12-05T20:19:36.244Z,10.77
2022-12-05T20:22:22.464Z,6.78
2022-12-05T20:25:07.095Z,8.98
2022-12-05T20:27:35.743Z,7.60
2022-12-05T20:30:06.065Z,8.57
2022-12-05T20:32:37.177Z,8.15
2022-12-05T20:35:06.242Z,10.60
2022-12-05T20:37:39.089Z,8.95
2022-12-05T20:40:06.402Z,8.25
2022-12-05T20:42:33.229Z,7.20
2022-12-05T20:45:00.045Z,7.57
2022-12-05T20:47:26.649Z,7.68
2022-12-05T20:49:54.183Z,5.55
2022-12-05T20:52:20.822Z,9.52
2022-12-05T20:54:47.653Z,8.20
2022-12-05T20:57:14.364Z,7.00
2022-12-05T20:59:41.223Z,7.75
2022-12-05T21:02:08.240Z,6.88
2022-12-05T21:04:41.454Z,10.07
2022-12-05T21:07:08.346Z,8.02
2022-12-05T21:09:36.012Z,5.82
2022-12-05T21:12:02.856Z,6.97
2022-12-05T21:14:29.581Z,7.68
2022-12-05T21:16:56.322Z,7.55
2022-12-05T21:19:23.166Z,8.32
2022-12-05T21:21:50.883Z,6.80
2022-12-05T21:24:17.776Z,9.57
2022-12-05T21:26:44.404Z,7.97
2022-12-05T21:29:11.142Z,9.38
2022-12-05T21:31:41.583Z,6.25
2022-12-05T21:34:15.630Z,6.18
2022-12-05T21:39:11.141Z,7.50
2022-12-05T21:41:38.185Z,8.80
2022-12-05T21:44:12.006Z,7.28
2022-12-05T21:46:38.708Z,8.75
2022-12-05T21:49:06.545Z,6.63
2022-12-05T21:51:33.134Z,7.45
2022-12-05T21:53:59.661Z,6.28
2022-12-05T21:56:26.386Z,7.63
2022-12-05T21:58:53.570Z,10.43
2022-12-05T22:01:23.490Z,7.35
2022-12-05T22:03:56.149Z,9.95
2022-12-05T22:06:23.141Z,5.97
2022-12-05T22:08:49.900Z,6.97
2022-12-05T22:11:27.042Z,9.73
2022-12-05T22:13:53.824Z,10.60
2022-12-05T22:16:21.084Z,9.20
2022-12-05T22:18:51.230Z,8.90
2022-12-05T22:21:20.380Z,10.70
2022-12-05T22:23:48.389Z,5.93
2022-12-05T22:26:18.483Z,10.77
2022-12-05T22:28:46.187Z,6.72
2022-12-05T22:31:15.360Z,9.60
2022-12-05T22:33:42.429Z,7.72
2022-12-05T22:36:11.516Z,6.53
2022-12-05T22:38:40.772Z,7.63
2022-12-05T22:41:10.665Z,5.18
2022-12-05T22:43:40.715Z,6.80
2022-12-05T22:46:10.342Z,5.68
2022-12-05T22:48:37.597Z,5.22
2022-12-05T22:51:05.734Z,7.03
2022-12-05T22:53:32.673Z,8.07
2022-12-05T22:56:05.190Z,9.43
2022-12-05T22:58:35.263Z,6.70
